createdAt,value
2018-12-04T00:01:14.271Z,11.13
2018-12-04T00:03:45.381Z,8.97
2018-12-04T00:06:19.962Z,7.80
2018-12-04T00:14:48.509Z,9.43
2018-12-04T00:17:30.075Z,9.37
2018-12-04T00:23:06.551Z,6.33
2018-12-04T00:28:42.809Z,6.90
2018-12-04T00:31:31.918Z,10.37
2018-12-04T00:34:14.360Z,6.77
2018-12-04T00:37:04.318Z,10.60
2018-12-04T00:39:42.315Z,9.27
2018-12-04T00:42:17.040Z,7.50
2018-12-04T00:44:52.362Z,11.80
2018-12-04T00:59:12.452Z,9.93
2018-12-04T01:01:49.726Z,5.07
2018-12-04T01:04:26.693Z,5.87
2018-12-04T01:21:43.107Z,11.00
2018-12-04T01:24:23.939Z,8.43
2018-12-04T01:38:30.725Z,9.17
2018-12-04T01:41:05.561Z,6.40
2018-12-04T01:49:31.591Z,7.60
2018-12-04T01:52:16.503Z,5.57
2018-12-04T02:06:28.280Z,5.10
2018-12-04T02:12:00.533Z,4.53
2018-12-04T02:14:39.691Z,4.70
2018-12-04T02:20:15.872Z,4.13
2018-12-04T02:22:46.383Z,2.57
2018-12-04T02:25:21.400Z,5.10
2018-12-04T02:27:52.338Z,4.03
2018-12-04T02:30:23.857Z,6.10
2018-12-04T02:33:04.914Z,9.53
2018-12-04T02:38:43.268Z,5.40
2018-12-04T02:41:15.287Z,4.57
2018-12-04T02:43:53.085Z,4.23
2018-12-04T02:46:37.045Z,6.97
2018-12-04T02:58:14.319Z,6.23
2018-12-04T03:18:20.053Z,8.63
2018-12-04T03:20:59.270Z,6.23
2018-12-04T03:23:31.024Z,6.70
2018-12-04T03:26:06.561Z,8.40
2018-12-04T03:28:42.335Z,6.40
2018-12-04T03:42:56.271Z,6.50
2018-12-04T03:45:41.582Z,7.67
2018-12-04T03:48:13.109Z,6.03
2018-12-04T03:51:01.380Z,6.30
2018-12-04T03:53:49.167Z,10.43
2018-12-04T03:56:22.798Z,6.30
2018-12-04T04:07:42.754Z,6.97
2018-12-04T04:10:17.308Z,5.97
2018-12-04T04:15:54.589Z,10.07
2018-12-04T04:18:31.432Z,9.67
2018-12-04T04:21:07.391Z,8.77
2018-12-04T04:23:53.932Z,9.70
2018-12-04T04:26:28.915Z,8.50
2018-12-04T04:32:01.314Z,5.57
2018-12-04T04:34:42.506Z,10.40
2018-12-04T04:39:56.432Z,9.07
2018-12-04T04:42:40.019Z,9.23
2018-12-04T04:45:15.389Z,6.63
2018-12-04T04:48:05.010Z,8.17
2018-12-04T04:50:43.022Z,6.77
2018-12-04T04:53:13.823Z,6.63
2018-12-04T04:55:57.247Z,8.87
2018-12-04T04:58:40.935Z,7.23
2018-12-04T05:01:12.180Z,4.53
2018-12-04T05:04:10.516Z,5.70
2018-12-04T05:06:43.080Z,4.73
2018-12-04T05:09:17.267Z,4.87
2018-12-04T05:12:00.464Z,7.13
2018-12-04T05:14:38.018Z,7.20
2018-12-04T05:17:16.373Z,7.33
2018-12-04T05:19:50.100Z,5.43
2018-12-04T05:22:29.599Z,7.30
2018-12-04T05:25:01.624Z,6.73
2018-12-04T05:27:39.700Z,7.57
2018-12-04T05:30:14.279Z,8.50
2018-12-04T05:32:48.022Z,9.13
2018-12-04T05:35:21.658Z,9.50
2018-12-04T05:37:55.334Z,5.00
2018-12-04T05:40:29.404Z,6.80
2018-12-04T05:43:13.830Z,9.67
2018-12-04T05:45:46.564Z,7.90
2018-12-04T05:48:40.427Z,7.23
2018-12-04T05:51:15.484Z,7.93
2018-12-04T05:53:49.650Z,5.20
2018-12-04T05:56:19.546Z,4.67
2018-12-04T05:59:03.874Z,4.40
2018-12-04T06:01:47.651Z,5.20
2018-12-04T06:04:24.705Z,6.63
2018-12-04T06:06:55.650Z,8.93
2018-12-04T06:09:38.082Z,7.50
2018-12-04T06:12:14.914Z,5.47
2018-12-04T06:15:04.220Z,5.73
2018-12-04T06:20:37.735Z,5.63
2018-12-04T06:23:12.746Z,9.13
2018-12-04T06:25:47.442Z,4.80
2018-12-04T06:28:20.582Z,5.23
2018-12-04T06:30:54.792Z,6.17
2018-12-04T06:33:46.155Z,8.30
2018-12-04T06:36:19.312Z,7.37
2018-12-04T06:38:50.514Z,5.90
2018-12-04T06:41:37.795Z,5.43
2018-12-04T06:44:21.839Z,7.03
2018-12-04T06:46:55.552Z,7.27
2018-12-04T06:52:22.559Z,8.53
2018-12-04T06:54:53.402Z,9.57
2018-12-04T06:57:26.209Z,5.87
2018-12-04T07:00:02.300Z,8.03
2018-12-04T07:02:36.347Z,6.67
2018-12-04T07:05:12.843Z,6.67
2018-12-04T07:07:46.177Z,8.10
2018-12-04T07:10:16.921Z,11.23
2018-12-04T07:12:50.335Z,7.90
2018-12-04T07:15:24.087Z,10.37
2018-12-04T07:17:59.968Z,13.93
2018-12-04T07:20:31.985Z,10.57
2018-12-04T07:22:59.496Z,11.00
2018-12-04T07:28:28.921Z,13.80
2018-12-04T07:31:12.161Z,9.90
2018-12-04T07:33:47.249Z,10.83
2018-12-04T07:36:26.955Z,12.00
2018-12-04T07:39:02.787Z,12.63
2018-12-04T07:41:39.897Z,11.13
2018-12-04T07:44:14.275Z,9.17
2018-12-04T07:46:51.532Z,8.37
2018-12-04T07:49:23.144Z,8.93
2018-12-04T07:51:59.162Z,8.77
2018-12-04T07:54:38.090Z,9.70
2018-12-04T08:00:29.866Z,12.67
2018-12-04T08:03:16.416Z,9.27
2018-12-04T08:05:48.183Z,11.40
2018-12-04T08:08:21.916Z,8.03
2018-12-04T08:10:52.796Z,9.40
2018-12-04T08:13:45.601Z,8.10
2018-12-04T08:16:17.831Z,10.60
2018-12-04T08:18:51.272Z,11.17
2018-12-04T08:21:27.176Z,9.50
2018-12-04T08:23:59.746Z,8.73
2018-12-04T08:26:39.183Z,10.13
2018-12-04T08:29:21.623Z,8.90
2018-12-04T08:31:50.598Z,8.77
2018-12-04T08:37:29.277Z,10.40
2018-12-04T08:43:10.591Z,10.87
2018-12-04T08:45:48.665Z,11.47
2018-12-04T08:48:19.534Z,9.30
2018-12-04T08:50:52.992Z,9.53
2018-12-04T08:53:24.251Z,7.90
2018-12-04T08:56:09.130Z,9.70
2018-12-04T08:58:43.380Z,10.53
2018-12-04T09:01:13.264Z,11.63
2018-12-04T09:03:44.152Z,10.53
2018-12-04T09:06:21.442Z,9.80
2018-12-04T09:08:57.134Z,9.43
2018-12-04T09:11:38.942Z,9.40
2018-12-04T09:14:13.435Z,12.20
2018-12-04T09:16:46.845Z,7.83
2018-12-04T09:19:15.721Z,8.83
2018-12-04T09:21:51.732Z,7.93
2018-12-04T09:24:30.882Z,7.63
2018-12-04T09:27:09.672Z,6.97
2018-12-04T09:29:42.851Z,6.53
2018-12-04T09:32:13.514Z,7.37
2018-12-04T09:34:49.484Z,9.50
2018-12-04T09:37:18.757Z,7.27
2018-12-04T09:39:49.233Z,7.80
2018-12-04T09:42:22.667Z,9.10
2018-12-04T09:44:53.577Z,6.60
2018-12-04T09:47:24.030Z,5.37
2018-12-04T09:49:59.367Z,6.30
2018-12-04T09:55:44.909Z,7.60
2018-12-04T09:58:18.423Z,8.83
2018-12-04T10:00:49.021Z,9.93
2018-12-04T10:03:17.608Z,7.00
2018-12-04T10:05:46.178Z,7.22
2018-12-04T10:08:16.747Z,6.07
2018-12-04T10:10:49.875Z,5.87
2018-12-04T10:13:23.415Z,7.47
2018-12-04T10:15:59.420Z,7.33
2018-12-04T10:18:47.483Z,7.23
2018-12-04T10:21:15.649Z,5.10
2018-12-04T10:24:05.407Z,6.33
2018-12-04T10:26:42.509Z,7.53
2018-12-04T10:29:16.903Z,6.43
2018-12-04T10:31:55.970Z,6.53
2018-12-04T10:34:26.967Z,6.73
2018-12-04T10:37:07.497Z,8.13
2018-12-04T10:39:41.729Z,4.53
2018-12-04T10:48:16.888Z,8.37
2018-12-04T10:50:48.524Z,6.30
2018-12-04T10:53:19.009Z,7.63
2018-12-04T10:55:54.357Z,8.07
2018-12-04T10:58:28.733Z,5.57
2018-12-04T11:01:14.720Z,5.27
2018-12-04T11:04:04.790Z,7.77
2018-12-04T11:06:42.364Z,6.67
2018-12-04T11:09:15.532Z,5.17
2018-12-04T11:11:50.398Z,5.60
2018-12-04T11:14:20.871Z,6.13
2018-12-04T11:16:54.117Z,7.87
2018-12-04T11:19:25.202Z,7.40
2018-12-04T11:22:05.064Z,6.47
2018-12-04T11:27:40.768Z,6.63
2018-12-04T11:30:21.841Z,7.23
2018-12-04T11:32:53.031Z,6.60
2018-12-04T11:35:26.589Z,6.73
2018-12-04T11:41:00.843Z,5.53
2018-12-04T11:43:37.965Z,8.93
2018-12-04T11:46:11.569Z,7.23
2018-12-04T11:48:47.034Z,7.07
2018-12-04T11:51:33.326Z,10.07
2018-12-04T11:56:59.981Z,4.20
2018-12-04T11:59:33.620Z,6.20
2018-12-04T12:02:10.801Z,4.47
2018-12-04T12:04:51.446Z,5.43
2018-12-04T12:07:34.765Z,5.20
2018-12-04T12:10:06.626Z,5.33
2018-12-04T12:12:37.551Z,3.47
2018-12-04T12:20:36.029Z,4.00
2018-12-04T12:23:08.075Z,3.33
2018-12-04T12:25:45.577Z,3.47
2018-12-04T12:30:47.636Z,6.87
2018-12-04T12:33:21.034Z,6.80
2018-12-04T12:35:51.509Z,3.97
2018-12-04T12:38:34.550Z,3.40
2018-12-04T12:46:56.167Z,4.53
2018-12-04T12:49:33.348Z,5.90
2018-12-04T12:52:04.335Z,3.40
2018-12-04T12:54:45.625Z,5.67
2018-12-04T12:57:16.067Z,3.10
2018-12-04T12:59:49.460Z,4.17
2018-12-04T13:02:20.214Z,3.00
2018-12-04T13:04:53.653Z,4.57
2018-12-04T13:07:38.401Z,3.60
2018-12-04T13:10:31.540Z,4.87
2018-12-04T13:13:09.691Z,3.60
2018-12-04T13:15:40.894Z,3.97
2018-12-04T13:18:20.849Z,2.50
2018-12-04T13:20:51.725Z,4.23
2018-12-04T13:34:24.202Z,3.67
2018-12-04T13:36:59.366Z,4.90
2018-12-04T13:39:28.366Z,4.10
2018-12-04T13:42:02.659Z,3.17
2018-12-04T13:44:35.901Z,4.03
2018-12-04T13:47:11.355Z,4.10
2018-12-04T13:49:42.107Z,5.23
2018-12-04T13:52:15.549Z,2.07
2018-12-04T13:54:44.903Z,5.43
2018-12-04T13:57:22.285Z,4.93
2018-12-04T13:59:56.091Z,3.27
2018-12-04T14:02:26.759Z,2.40
2018-12-04T14:05:02.527Z,3.07
2018-12-04T14:07:33.048Z,3.10
2018-12-04T14:10:11.077Z,4.37
2018-12-04T14:12:45.031Z,2.73
2018-12-04T14:15:20.982Z,3.23
2018-12-04T14:17:51.701Z,3.73
2018-12-04T14:26:15.809Z,3.00
2018-12-04T14:28:49.135Z,2.93
2018-12-04T14:31:19.855Z,4.53
2018-12-04T14:33:54.033Z,4.30
2018-12-04T14:36:28.585Z,3.30
2018-12-04T14:38:57.410Z,4.67
2018-12-04T14:41:26.790Z,4.40
2018-12-04T14:43:58.189Z,4.37
2018-12-04T14:46:28.759Z,4.97
2018-12-04T14:49:02.988Z,5.07
2018-12-04T14:51:36.375Z,3.23
2018-12-04T14:54:07.179Z,4.50
2018-12-04T14:56:38.463Z,3.37
2018-12-04T14:59:11.798Z,3.63
2018-12-04T15:01:43.491Z,5.87
2018-12-04T15:04:23.613Z,6.30
2018-12-04T15:06:57.457Z,5.90
2018-12-04T15:09:24.953Z,10.97
2018-12-04T15:11:58.862Z,8.50
2018-12-04T15:14:26.395Z,7.33
2018-12-04T15:16:55.335Z,4.15
2018-12-04T15:19:23.067Z,3.57
2018-12-04T15:21:56.665Z,4.42
2018-12-04T15:24:27.475Z,4.57
2018-12-04T15:32:55.164Z,5.27
2018-12-04T15:35:25.875Z,5.47
2018-12-04T15:40:51.980Z,4.47
2018-12-04T15:43:25.572Z,5.07
2018-12-04T15:45:59.002Z,6.20
2018-12-04T15:48:32.561Z,4.77
2018-12-04T15:51:03.158Z,5.57
2018-12-04T15:53:40.195Z,7.00
2018-12-04T15:56:14.751Z,7.47
2018-12-04T15:58:45.628Z,7.63
2018-12-04T16:01:18.824Z,6.03
2018-12-04T16:09:39.262Z,6.40
2018-12-04T16:12:13.316Z,6.07
2018-12-04T16:14:44.576Z,4.73
2018-12-04T16:20:08.974Z,9.17
2018-12-04T16:22:42.285Z,6.97
2018-12-04T16:25:13.930Z,6.07
2018-12-04T16:27:47.394Z,5.20
2018-12-04T16:30:16.952Z,5.50
2018-12-04T16:35:43.276Z,7.43
2018-12-04T16:38:17.385Z,5.20
2018-12-04T16:40:48.611Z,12.23
2018-12-04T16:43:21.821Z,8.93
2018-12-04T16:45:59.191Z,6.30
2018-12-04T16:48:32.969Z,5.70
2018-12-04T16:51:06.556Z,6.60
2018-12-04T16:53:35.260Z,6.47
2018-12-04T16:56:08.388Z,9.45
2018-12-04T16:58:37.236Z,9.40
2018-12-04T17:01:10.920Z,13.48
2018-12-04T17:03:52.831Z,9.83
2018-12-04T17:06:23.864Z,15.70
2018-12-04T17:08:57.275Z,16.13
2018-12-04T17:11:44.709Z,17.87
2018-12-04T17:14:21.965Z,17.50
2018-12-04T17:16:52.511Z,16.40
2018-12-04T17:19:23.211Z,16.33
2018-12-04T17:27:37.554Z,10.53
2018-12-04T17:30:13.043Z,10.10
2018-12-04T17:32:47.219Z,10.37
2018-12-04T17:35:17.752Z,9.13
2018-12-04T17:37:51.065Z,11.67
2018-12-04T17:40:25.614Z,8.27
2018-12-04T17:43:01.763Z,7.47
2018-12-04T17:45:33.055Z,15.40
2018-12-04T17:48:06.184Z,12.70
2018-12-04T17:50:36.894Z,17.43
2018-12-04T17:53:07.656Z,18.20
2018-12-04T17:55:41.002Z,20.03
2018-12-04T17:58:14.936Z,22.27
2018-12-04T18:03:44.372Z,20.20
2018-12-04T18:06:18.188Z,18.67
2018-12-04T18:08:48.933Z,19.70
2018-12-04T18:11:22.186Z,20.60
2018-12-04T18:13:53.125Z,17.00
2018-12-04T18:19:20.573Z,16.47
2018-12-04T18:21:49.149Z,13.63
2018-12-04T18:24:19.912Z,14.20
2018-12-04T18:26:49.264Z,20.87
2018-12-04T18:29:17.940Z,19.83
2018-12-04T18:31:51.303Z,85.25
2018-12-04T18:34:35.187Z,41.60
2018-12-04T18:37:08.925Z,35.90
2018-12-04T18:39:42.707Z,37.70
2018-12-04T18:45:06.939Z,70.93
2018-12-04T18:50:39.224Z,93.23
2018-12-04T18:53:09.951Z,50.07
2018-12-04T18:58:37.194Z,17.73
2018-12-04T19:01:08.173Z,32.90
2018-12-04T19:03:39.078Z,30.73
2018-12-04T19:06:14.783Z,26.43
2018-12-04T19:14:31.167Z,23.53
2018-12-04T19:17:04.418Z,22.37
2018-12-04T19:19:33.290Z,22.27
2018-12-04T19:22:07.433Z,16.00
2018-12-04T19:24:41.062Z,16.40
2018-12-04T19:30:11.195Z,21.47
2018-12-04T19:32:41.809Z,58.57
2018-12-04T19:35:15.306Z,67.70
2018-12-04T19:37:49.454Z,108.10
2018-12-04T19:40:22.867Z,33.83
2018-12-04T19:42:53.889Z,29.40
2018-12-04T19:45:24.523Z,64.07
2018-12-04T19:47:54.908Z,42.77
2018-12-04T19:50:28.234Z,54.70
2018-12-04T19:52:58.846Z,46.63
2018-12-04T19:55:27.367Z,40.07
2018-12-04T19:58:01.530Z,39.55
2018-12-04T20:00:34.842Z,43.27
2018-12-04T20:03:08.539Z,42.13
2018-12-04T20:05:39.441Z,38.20
2018-12-04T20:08:10.086Z,37.27
2018-12-04T20:10:49.968Z,32.00
2018-12-04T20:13:30.399Z,27.67
2018-12-04T20:16:01.214Z,23.47
2018-12-04T20:18:32.505Z,24.80
2018-12-04T20:21:05.806Z,28.57
2018-12-04T20:23:39.331Z,20.13
2018-12-04T20:26:12.902Z,19.10
2018-12-04T20:28:41.791Z,27.50
2018-12-04T20:31:13.076Z,20.00
2018-12-04T20:33:44.188Z,17.50
2018-12-04T20:36:15.108Z,20.63
2018-12-04T20:38:44.801Z,23.17
2018-12-04T20:41:16.012Z,27.33
2018-12-04T20:43:46.553Z,34.80
2018-12-04T20:46:17.939Z,32.80
2018-12-04T20:48:51.893Z,24.27
2018-12-04T20:51:25.192Z,32.20
2018-12-04T20:53:56.131Z,32.07
2018-12-04T20:56:26.779Z,27.87
2018-12-04T20:58:59.953Z,33.87
2018-12-04T21:01:30.743Z,32.83
2018-12-04T21:04:01.342Z,31.27
2018-12-04T21:06:32.707Z,31.00
2018-12-04T21:09:06.468Z,31.63
2018-12-04T21:11:37.546Z,32.97
2018-12-04T21:14:11.137Z,33.97
2018-12-04T21:19:43.074Z,27.07
2018-12-04T21:22:18.011Z,34.83
2018-12-04T21:24:49.745Z,33.73
2018-12-04T21:27:30.941Z,37.77
2018-12-04T21:30:09.947Z,35.80
2018-12-04T21:32:49.167Z,37.97
2018-12-04T21:35:26.044Z,36.27
2018-12-04T21:38:05.279Z,35.57
2018-12-04T21:40:42.021Z,35.73
2018-12-04T21:43:18.641Z,33.97
2018-12-04T21:45:54.919Z,43.67
2018-12-04T21:48:28.533Z,51.43
2018-12-04T21:56:55.412Z,36.97
2018-12-04T21:59:24.307Z,40.10
2018-12-04T22:01:57.769Z,51.20
2018-12-04T22:07:19.851Z,48.83
2018-12-04T22:09:51.503Z,39.90
2018-12-04T22:15:21.526Z,42.13
2018-12-04T22:17:52.031Z,47.10
2018-12-04T22:20:25.355Z,46.50
2018-12-04T22:22:58.819Z,43.70
2018-12-04T22:25:32.453Z,37.63
2018-12-04T22:28:06.194Z,37.83
2018-12-04T22:30:36.813Z,36.47
2018-12-04T22:33:09.959Z,37.03
2018-12-04T22:35:44.276Z,38.87
2018-12-04T22:41:13.146Z,41.93
2018-12-04T22:46:43.808Z,35.60
2018-12-04T22:49:28.042Z,36.57
2018-12-04T22:51:59.013Z,41.67
2018-12-04T22:54:29.553Z,41.27
2018-12-04T23:00:01.099Z,33.57
2018-12-04T23:02:45.273Z,36.53
2018-12-04T23:05:16.243Z,38.93
2018-12-04T23:08:00.842Z,35.70
2018-12-04T23:10:32.134Z,35.00
2018-12-04T23:13:03.369Z,39.13
2018-12-04T23:15:36.671Z,30.77
2018-12-04T23:18:07.475Z,36.83
2018-12-04T23:20:40.962Z,32.77
2018-12-04T23:23:14.465Z,35.97
2018-12-04T23:25:56.560Z,30.63
2018-12-04T23:28:30.471Z,32.70
2018-12-04T23:30:59.362Z,33.97
2018-12-04T23:33:27.956Z,40.57
2018-12-04T23:35:55.542Z,37.08
2018-12-04T23:38:29.388Z,32.80
2018-12-04T23:40:58.125Z,38.13
2018-12-04T23:43:30.164Z,44.50
2018-12-04T23:46:00.835Z,40.00
2018-12-04T23:51:29.308Z,38.10
2018-12-04T23:53:59.944Z,39.00
2018-12-04T23:56:30.459Z,50.43
2018-12-04T23:59:07.666Z,64.27
